sensor_id;sensor_type;location;lat;lon;timestamp;temperature;humidity
9219;DHT22;4644;48.858;9.184;2024-01-30T00:01:54;3.00;99.90
9219;DHT22;4644;48.858;9.184;2024-01-30T00:04:22;3.00;99.90
9219;DHT22;4644;48.858;9.184;2024-01-30T00:06:50;3.00;99.90
9219;DHT22;4644;48.858;9.184;2024-01-30T00:09:18;3.10;99.90
9219;DHT22;4644;48.858;9.184;2024-01-30T00:11:45;3.00;99.90
9219;DHT22;4644;48.858;9.184;2024-01-30T00:14:12;3.10;99.90
9219;DHT22;4644;48.858;9.184;2024-01-30T00:16:39;3.00;99.90
9219;DHT22;4644;48.858;9.184;2024-01-30T00:19:06;3.00;99.90
9219;DHT22;4644;48.858;9.184;2024-01-30T00:21:35;3.00;99.90
9219;DHT22;4644;48.858;9.184;2024-01-30T00:24:02;3.00;99.90
9219;DHT22;4644;48.858;9.184;2024-01-30T00:26:29;3.10;99.90
9219;DHT22;4644;48.858;9.184;2024-01-30T00:28:56;3.10;99.90
9219;DHT22;4644;48.858;9.184;2024-01-30T00:31:22;3.10;99.90
9219;DHT22;4644;48.858;9.184;2024-01-30T00:33:49;3.10;99.90
9219;DHT22;4644;48.858;9.184;2024-01-30T00:36:16;3.20;99.90
9219;DHT22;4644;48.858;9.184;2024-01-30T00:38:45;3.20;99.90
9219;DHT22;4644;48.858;9.184;2024-01-30T00:41:11;3.20;99.90
9219;DHT22;4644;48.858;9.184;2024-01-30T00:43:38;3.20;99.90
9219;DHT22;4644;48.858;9.184;2024-01-30T00:46:05;3.10;99.90
9219;DHT22;4644;48.858;9.184;2024-01-30T00:48:32;3.10;99.90
9219;DHT22;4644;48.858;9.184;2024-01-30T00:50:59;3.20;99.90
9219;DHT22;4644;48.858;9.184;2024-01-30T00:53:26;3.30;99.90
9219;DHT22;4644;48.858;9.184;2024-01-30T00:55:54;3.40;99.90
9219;DHT22;4644;48.858;9.184;2024-01-30T00:58:21;3.40;99.90
9219;DHT22;4644;48.858;9.184;2024-01-30T01:00:48;3.50;99.90
9219;DHT22;4644;48.858;9.184;2024-01-30T01:03:14;3.50;99.90
9219;DHT22;4644;48.858;9.184;2024-01-30T01:05:40;3.40;99.90
9219;DHT22;4644;48.858;9.184;2024-01-30T01:08:07;3.50;99.90
9219;DHT22;4644;48.858;9.184;2024-01-30T01:10:34;3.50;99.90
9219;DHT22;4644;48.858;9.184;2024-01-30T01:13:03;3.50;99.90
9219;DHT22;4644;48.858;9.184;2024-01-30T01:15:29;3.50;99.90
9219;DHT22;4644;48.858;9.184;2024-01-30T01:17:59;3.50;99.90
9219;DHT22;4644;48.858;9.184;2024-01-30T01:20:26;3.50;99.90
9219;DHT22;4644;48.858;9.184;2024-01-30T01:22:53;3.60;99.90
9219;DHT22;4644;48.858;9.184;2024-01-30T01:25:20;3.70;99.90
9219;DHT22;4644;48.858;9.184;2024-01-30T01:27:47;3.70;99.90
9219;DHT22;4644;48.858;9.184;2024-01-30T01:30:18;3.70;99.90
9219;DHT22;4644;48.858;9.184;2024-01-30T01:32:47;3.70;99.90
9219;DHT22;4644;48.858;9.184;2024-01-30T01:35:20;3.70;99.90
9219;DHT22;4644;48.858;9.184;2024-01-30T01:37:48;3.70;99.90
9219;DHT22;4644;48.858;9.184;2024-01-30T01:40:21;3.70;99.90
9219;DHT22;4644;48.858;9.184;2024-01-30T01:42:49;3.80;99.90
9219;DHT22;4644;48.858;9.184;2024-01-30T01:45:15;3.80;99.90
9219;DHT22;4644;48.858;9.184;2024-01-30T01:47:44;3.80;99.90
9219;DHT22;4644;48.858;9.184;2024-01-30T01:50:12;3.80;99.90
9219;DHT22;4644;48.858;9.184;2024-01-30T01:52:40;3.80;99.90
9219;DHT22;4644;48.858;9.184;2024-01-30T01:55:08;3.70;99.90
9219;DHT22;4644;48.858;9.184;2024-01-30T01:57:34;3.60;99.90
9219;DHT22;4644;48.858;9.184;2024-01-30T02:00:02;3.50;99.90
9219;DHT22;4644;48.858;9.184;2024-01-30T02:02:30;3.50;99.90
9219;DHT22;4644;48.858;9.184;2024-01-30T02:04:59;3.50;99.90
9219;DHT22;4644;48.858;9.184;2024-01-30T02:07:27;3.50;99.90
9219;DHT22;4644;48.858;9.184;2024-01-30T02:09:55;3.40;99.90
9219;DHT22;4644;48.858;9.184;2024-01-30T02:12:22;3.40;99.90
9219;DHT22;4644;48.858;9.184;2024-01-30T02:14:49;3.40;99.90
9219;DHT22;4644;48.858;9.184;2024-01-30T02:17:17;3.40;99.90
9219;DHT22;4644;48.858;9.184;2024-01-30T02:19:44;3.40;99.90
9219;DHT22;4644;48.858;9.184;2024-01-30T02:22:12;3.40;99.90
9219;DHT22;4644;48.858;9.184;2024-01-30T02:24:39;3.30;99.90
9219;DHT22;4644;48.858;9.184;2024-01-30T02:27:06;3.30;99.90
9219;DHT22;4644;48.858;9.184;2024-01-30T02:29:33;3.30;99.90
9219;DHT22;4644;48.858;9.184;2024-01-30T02:32:00;3.30;99.90
9219;DHT22;4644;48.858;9.184;2024-01-30T02:34:27;3.30;99.90
9219;DHT22;4644;48.858;9.184;2024-01-30T02:36:53;3.40;99.90
9219;DHT22;4644;48.858;9.184;2024-01-30T02:39:22;3.30;99.90
9219;DHT22;4644;48.858;9.184;2024-01-30T02:41:48;3.30;99.90
9219;DHT22;4644;48.858;9.184;2024-01-30T02:44:15;3.30;99.90
9219;DHT22;4644;48.858;9.184;2024-01-30T02:46:42;3.20;99.90
9219;DHT22;4644;48.858;9.184;2024-01-30T02:49:09;3.30;99.90
9219;DHT22;4644;48.858;9.184;2024-01-30T02:51:35;3.30;99.90
9219;DHT22;4644;48.858;9.184;2024-01-30T02:54:02;3.30;99.90
9219;DHT22;4644;48.858;9.184;2024-01-30T02:56:31;3.30;99.90
9219;DHT22;4644;48.858;9.184;2024-01-30T02:58:57;3.20;99.90
9219;DHT22;4644;48.858;9.184;2024-01-30T03:01:24;3.20;99.90
9219;DHT22;4644;48.858;9.184;2024-01-30T03:03:51;3.20;99.90
9219;DHT22;4644;48.858;9.184;2024-01-30T03:06:18;3.20;99.90
9219;DHT22;4644;48.858;9.184;2024-01-30T03:08:45;3.20;99.90
9219;DHT22;4644;48.858;9.184;2024-01-30T03:11:11;3.10;99.90
9219;DHT22;4644;48.858;9.184;2024-01-30T03:13:39;3.00;99.90
9219;DHT22;4644;48.858;9.184;2024-01-30T03:16:08;3.00;99.90
9219;DHT22;4644;48.858;9.184;2024-01-30T03:18:35;3.00;99.90
9219;DHT22;4644;48.858;9.184;2024-01-30T03:21:01;2.90;99.90
9219;DHT22;4644;48.858;9.184;2024-01-30T03:23:29;2.90;99.90
9219;DHT22;4644;48.858;9.184;2024-01-30T03:25:57;2.90;99.90
9219;DHT22;4644;48.858;9.184;2024-01-30T03:28:24;2.90;99.90
9219;DHT22;4644;48.858;9.184;2024-01-30T03:30:53;2.80;99.90
9219;DHT22;4644;48.858;9.184;2024-01-30T03:33:20;2.80;99.90
9219;DHT22;4644;48.858;9.184;2024-01-30T03:35:46;2.80;99.90
9219;DHT22;4644;48.858;9.184;2024-01-30T03:38:13;2.70;99.90
9219;DHT22;4644;48.858;9.184;2024-01-30T03:40:40;2.70;99.90
9219;DHT22;4644;48.858;9.184;2024-01-30T03:43:07;2.70;99.90
9219;DHT22;4644;48.858;9.184;2024-01-30T03:45:34;2.70;99.90
9219;DHT22;4644;48.858;9.184;2024-01-30T03:48:02;2.70;99.90
9219;DHT22;4644;48.858;9.184;2024-01-30T03:50:29;2.60;99.90
9219;DHT22;4644;48.858;9.184;2024-01-30T03:52:56;2.70;99.90
9219;DHT22;4644;48.858;9.184;2024-01-30T03:55:22;2.70;99.90
9219;DHT22;4644;48.858;9.184;2024-01-30T03:57:49;2.70;99.90
9219;DHT22;4644;48.858;9.184;2024-01-30T04:00:16;2.70;99.90
9219;DHT22;4644;48.858;9.184;2024-01-30T04:02:45;2.70;99.90
9219;DHT22;4644;48.858;9.184;2024-01-30T04:05:13;2.70;99.90
9219;DHT22;4644;48.858;9.184;2024-01-30T04:07:40;2.70;99.90
9219;DHT22;4644;48.858;9.184;2024-01-30T04:10:08;2.60;99.90
9219;DHT22;4644;48.858;9.184;2024-01-30T04:12:35;2.60;99.90
9219;DHT22;4644;48.858;9.184;2024-01-30T04:15:02;2.60;99.90
9219;DHT22;4644;48.858;9.184;2024-01-30T04:17:29;2.60;99.90
9219;DHT22;4644;48.858;9.184;2024-01-30T04:19:56;2.60;99.90
9219;DHT22;4644;48.858;9.184;2024-01-30T04:22:24;2.60;99.90
9219;DHT22;4644;48.858;9.184;2024-01-30T04:24:51;2.60;99.90
9219;DHT22;4644;48.858;9.184;2024-01-30T04:27:18;2.50;99.90
9219;DHT22;4644;48.858;9.184;2024-01-30T04:29:44;2.50;99.90
9219;DHT22;4644;48.858;9.184;2024-01-30T04:32:11;2.50;99.90
9219;DHT22;4644;48.858;9.184;2024-01-30T04:34:38;2.50;99.90
9219;DHT22;4644;48.858;9.184;2024-01-30T04:37:05;2.50;99.90
9219;DHT22;4644;48.858;9.184;2024-01-30T04:39:34;2.50;99.90
9219;DHT22;4644;48.858;9.184;2024-01-30T04:42:01;2.50;99.90
9219;DHT22;4644;48.858;9.184;2024-01-30T04:44:28;2.50;99.90
9219;DHT22;4644;48.858;9.184;2024-01-30T04:46:54;2.50;99.90
9219;DHT22;4644;48.858;9.184;2024-01-30T04:49:24;2.60;99.90
9219;DHT22;4644;48.858;9.184;2024-01-30T04:51:51;2.60;99.90
9219;DHT22;4644;48.858;9.184;2024-01-30T04:54:18;2.60;99.90
9219;DHT22;4644;48.858;9.184;2024-01-30T04:56:46;2.60;99.90
9219;DHT22;4644;48.858;9.184;2024-01-30T04:59:13;2.60;99.90
9219;DHT22;4644;48.858;9.184;2024-01-30T05:01:41;2.70;99.90
9219;DHT22;4644;48.858;9.184;2024-01-30T05:04:09;2.70;99.90
9219;DHT22;4644;48.858;9.184;2024-01-30T05:06:36;2.60;99.90
9219;DHT22;4644;48.858;9.184;2024-01-30T05:09:03;2.60;99.90
9219;DHT22;4644;48.858;9.184;2024-01-30T05:11:30;2.60;99.90
9219;DHT22;4644;48.858;9.184;2024-01-30T05:13:58;2.60;99.90
9219;DHT22;4644;48.858;9.184;2024-01-30T05:16:25;2.60;99.90
9219;DHT22;4644;48.858;9.184;2024-01-30T05:18:52;2.60;99.90
9219;DHT22;4644;48.858;9.184;2024-01-30T05:21:19;2.60;99.90
9219;DHT22;4644;48.858;9.184;2024-01-30T05:23:45;2.60;99.90
9219;DHT22;4644;48.858;9.184;2024-01-30T05:26:12;2.60;99.90
9219;DHT22;4644;48.858;9.184;2024-01-30T05:28:39;2.60;99.90
9219;DHT22;4644;48.858;9.184;2024-01-30T05:31:08;2.60;99.90
9219;DHT22;4644;48.858;9.184;2024-01-30T05:33:35;2.60;99.90
9219;DHT22;4644;48.858;9.184;2024-01-30T05:36:02;2.70;99.90
9219;DHT22;4644;48.858;9.184;2024-01-30T05:38:29;2.60;99.90
9219;DHT22;4644;48.858;9.184;2024-01-30T05:40:55;2.60;99.90
9219;DHT22;4644;48.858;9.184;2024-01-30T05:43:23;2.60;99.90
9219;DHT22;4644;48.858;9.184;2024-01-30T05:45:51;2.60;99.90
9219;DHT22;4644;48.858;9.184;2024-01-30T05:48:19;2.60;99.90
9219;DHT22;4644;48.858;9.184;2024-01-30T05:50:46;2.60;99.90
9219;DHT22;4644;48.858;9.184;2024-01-30T05:53:13;2.70;99.90
9219;DHT22;4644;48.858;9.184;2024-01-30T05:55:40;2.70;99.90
9219;DHT22;4644;48.858;9.184;2024-01-30T05:58:07;2.70;99.90
9219;DHT22;4644;48.858;9.184;2024-01-30T06:00:33;2.70;99.90
9219;DHT22;4644;48.858;9.184;2024-01-30T06:03:00;2.70;99.90
9219;DHT22;4644;48.858;9.184;2024-01-30T06:05:28;2.80;99.90
9219;DHT22;4644;48.858;9.184;2024-01-30T06:07:55;2.80;99.90
9219;DHT22;4644;48.858;9.184;2024-01-30T06:10:22;2.80;99.90
9219;DHT22;4644;48.858;9.184;2024-01-30T06:12:49;2.80;99.90
9219;DHT22;4644;48.858;9.184;2024-01-30T06:15:16;2.80;99.90
9219;DHT22;4644;48.858;9.184;2024-01-30T06:17:42;2.70;99.90
9219;DHT22;4644;48.858;9.184;2024-01-30T06:20:09;2.70;99.90
9219;DHT22;4644;48.858;9.184;2024-01-30T06:22:38;2.70;99.90
9219;DHT22;4644;48.858;9.184;2024-01-30T06:25:05;2.70;99.90
9219;DHT22;4644;48.858;9.184;2024-01-30T06:27:32;2.70;99.90
9219;DHT22;4644;48.858;9.184;2024-01-30T06:29:59;2.70;99.90
9219;DHT22;4644;48.858;9.184;2024-01-30T06:32:25;2.60;99.90
9219;DHT22;4644;48.858;9.184;2024-01-30T06:34:52;2.60;99.90
9219;DHT22;4644;48.858;9.184;2024-01-30T06:37:19;2.70;99.90
9219;DHT22;4644;48.858;9.184;2024-01-30T06:39:48;2.70;99.90
9219;DHT22;4644;48.858;9.184;2024-01-30T06:42:14;2.60;99.90
9219;DHT22;4644;48.858;9.184;2024-01-30T06:44:42;2.60;99.90
9219;DHT22;4644;48.858;9.184;2024-01-30T06:47:09;2.60;99.90
9219;DHT22;4644;48.858;9.184;2024-01-30T06:49:36;2.60;99.90
9219;DHT22;4644;48.858;9.184;2024-01-30T06:52:04;2.60;99.90
9219;DHT22;4644;48.858;9.184;2024-01-30T06:54:31;2.70;99.90
9219;DHT22;4644;48.858;9.184;2024-01-30T06:56:59;2.70;99.90
9219;DHT22;4644;48.858;9.184;2024-01-30T06:59:26;2.70;99.90
9219;DHT22;4644;48.858;9.184;2024-01-30T07:01:53;2.60;99.90
9219;DHT22;4644;48.858;9.184;2024-01-30T07:04:20;2.60;99.90
9219;DHT22;4644;48.858;9.184;2024-01-30T07:06:47;2.50;99.90
9219;DHT22;4644;48.858;9.184;2024-01-30T07:09:14;2.50;99.90
9219;DHT22;4644;48.858;9.184;2024-01-30T07:11:40;2.60;99.90
9219;DHT22;4644;48.858;9.184;2024-01-30T07:14:09;2.60;99.90
9219;DHT22;4644;48.858;9.184;2024-01-30T07:16:36;2.60;99.90
9219;DHT22;4644;48.858;9.184;2024-01-30T07:19:03;2.50;99.90
9219;DHT22;4644;48.858;9.184;2024-01-30T07:21:29;2.50;99.90
9219;DHT22;4644;48.858;9.184;2024-01-30T07:23:56;2.60;99.90
9219;DHT22;4644;48.858;9.184;2024-01-30T07:26:23;2.60;99.90
9219;DHT22;4644;48.858;9.184;2024-01-30T07:28:50;2.60;99.90
9219;DHT22;4644;48.858;9.184;2024-01-30T07:31:18;2.60;99.90
9219;DHT22;4644;48.858;9.184;2024-01-30T07:33:48;2.60;99.90
9219;DHT22;4644;48.858;9.184;2024-01-30T07:36:15;2.70;99.90
9219;DHT22;4644;48.858;9.184;2024-01-30T07:38:42;2.70;99.90
9219;DHT22;4644;48.858;9.184;2024-01-30T07:41:09;2.80;99.90
9219;DHT22;4644;48.858;9.184;2024-01-30T07:43:35;2.70;99.90
9219;DHT22;4644;48.858;9.184;2024-01-30T07:46:02;2.80;99.90
9219;DHT22;4644;48.858;9.184;2024-01-30T07:48:31;2.80;99.90
9219;DHT22;4644;48.858;9.184;2024-01-30T07:51:00;2.90;99.90
9219;DHT22;4644;48.858;9.184;2024-01-30T07:53:28;2.80;99.90
9219;DHT22;4644;48.858;9.184;2024-01-30T07:55:55;2.90;99.90
9219;DHT22;4644;48.858;9.184;2024-01-30T07:58:22;2.80;99.90
9219;DHT22;4644;48.858;9.184;2024-01-30T08:00:49;2.80;99.90
9219;DHT22;4644;48.858;9.184;2024-01-30T08:03:17;2.90;99.90
9219;DHT22;4644;48.858;9.184;2024-01-30T08:05:45;2.80;99.90
9219;DHT22;4644;48.858;9.184;2024-01-30T08:08:12;2.80;99.90
9219;DHT22;4644;48.858;9.184;2024-01-30T08:10:39;2.90;99.90
9219;DHT22;4644;48.858;9.184;2024-01-30T08:13:05;3.00;99.90
9219;DHT22;4644;48.858;9.184;2024-01-30T08:15:37;3.10;99.90
9219;DHT22;4644;48.858;9.184;2024-01-30T08:18:04;3.10;99.90
9219;DHT22;4644;48.858;9.184;2024-01-30T08:20:32;3.10;99.90
9219;DHT22;4644;48.858;9.184;2024-01-30T08:23:02;3.20;99.90
9219;DHT22;4644;48.858;9.184;2024-01-30T08:25:29;3.30;99.90
9219;DHT22;4644;48.858;9.184;2024-01-30T08:27:56;3.30;99.90
9219;DHT22;4644;48.858;9.184;2024-01-30T08:30:23;3.40;99.90
9219;DHT22;4644;48.858;9.184;2024-01-30T08:32:50;3.60;99.90
9219;DHT22;4644;48.858;9.184;2024-01-30T08:35:17;3.70;99.90
9219;DHT22;4644;48.858;9.184;2024-01-30T08:37:44;3.80;99.90
9219;DHT22;4644;48.858;9.184;2024-01-30T08:40:12;3.90;99.90
9219;DHT22;4644;48.858;9.184;2024-01-30T08:42:39;4.00;99.90
9219;DHT22;4644;48.858;9.184;2024-01-30T08:45:06;4.00;99.90
9219;DHT22;4644;48.858;9.184;2024-01-30T08:47:34;4.20;99.90
9219;DHT22;4644;48.858;9.184;2024-01-30T08:50:01;4.20;99.90
9219;DHT22;4644;48.858;9.184;2024-01-30T08:52:28;4.30;99.90
9219;DHT22;4644;48.858;9.184;2024-01-30T08:54:55;4.50;99.90
9219;DHT22;4644;48.858;9.184;2024-01-30T08:57:23;4.50;99.90
9219;DHT22;4644;48.858;9.184;2024-01-30T08:59:53;4.60;99.90
9219;DHT22;4644;48.858;9.184;2024-01-30T09:02:21;4.70;99.90
9219;DHT22;4644;48.858;9.184;2024-01-30T09:04:47;4.70;99.90
9219;DHT22;4644;48.858;9.184;2024-01-30T09:07:14;4.80;99.90
9219;DHT22;4644;48.858;9.184;2024-01-30T09:09:41;5.00;99.90
9219;DHT22;4644;48.858;9.184;2024-01-30T09:12:08;5.00;99.90
9219;DHT22;4644;48.858;9.184;2024-01-30T09:14:39;5.10;99.90
9219;DHT22;4644;48.858;9.184;2024-01-30T09:17:06;5.10;99.90
9219;DHT22;4644;48.858;9.184;2024-01-30T09:19:33;5.20;99.90
9219;DHT22;4644;48.858;9.184;2024-01-30T09:22:00;5.30;99.90
9219;DHT22;4644;48.858;9.184;2024-01-30T09:24:27;5.40;99.90
9219;DHT22;4644;48.858;9.184;2024-01-30T09:26:54;5.40;99.90
9219;DHT22;4644;48.858;9.184;2024-01-30T09:29:21;5.50;99.90
9219;DHT22;4644;48.858;9.184;2024-01-30T09:31:49;5.60;99.90
9219;DHT22;4644;48.858;9.184;2024-01-30T09:34:16;5.80;99.90
9219;DHT22;4644;48.858;9.184;2024-01-30T09:36:45;5.80;99.90
9219;DHT22;4644;48.858;9.184;2024-01-30T09:39:12;6.00;99.90
9219;DHT22;4644;48.858;9.184;2024-01-30T09:41:45;6.00;99.90
9219;DHT22;4644;48.858;9.184;2024-01-30T09:44:16;6.00;99.90
9219;DHT22;4644;48.858;9.184;2024-01-30T09:46:43;6.00;99.90
9219;DHT22;4644;48.858;9.184;2024-01-30T09:49:14;6.00;99.90
9219;DHT22;4644;48.858;9.184;2024-01-30T09:51:41;6.00;99.90
9219;DHT22;4644;48.858;9.184;2024-01-30T09:54:10;6.10;99.90
9219;DHT22;4644;48.858;9.184;2024-01-30T09:56:38;6.30;99.90
9219;DHT22;4644;48.858;9.184;2024-01-30T09:59:05;6.40;99.90
9219;DHT22;4644;48.858;9.184;2024-01-30T10:01:34;6.40;99.90
9219;DHT22;4644;48.858;9.184;2024-01-30T10:04:01;6.50;99.90
9219;DHT22;4644;48.858;9.184;2024-01-30T10:06:29;6.60;99.90
9219;DHT22;4644;48.858;9.184;2024-01-30T10:08:56;6.80;99.90
9219;DHT22;4644;48.858;9.184;2024-01-30T10:11:23;6.90;99.90
9219;DHT22;4644;48.858;9.184;2024-01-30T10:13:50;7.00;99.90
9219;DHT22;4644;48.858;9.184;2024-01-30T10:16:17;7.10;99.90
9219;DHT22;4644;48.858;9.184;2024-01-30T10:18:44;7.20;99.90
9219;DHT22;4644;48.858;9.184;2024-01-30T10:21:11;7.30;99.90
9219;DHT22;4644;48.858;9.184;2024-01-30T10:23:39;7.50;99.90
9219;DHT22;4644;48.858;9.184;2024-01-30T10:26:07;7.50;99.90
9219;DHT22;4644;48.858;9.184;2024-01-30T10:28:34;7.50;99.90
9219;DHT22;4644;48.858;9.184;2024-01-30T10:31:01;7.50;99.90
9219;DHT22;4644;48.858;9.184;2024-01-30T10:33:29;7.50;99.90
9219;DHT22;4644;48.858;9.184;2024-01-30T10:36:00;7.50;99.90
9219;DHT22;4644;48.858;9.184;2024-01-30T10:38:29;7.50;99.90
9219;DHT22;4644;48.858;9.184;2024-01-30T10:40:58;7.40;99.90
9219;DHT22;4644;48.858;9.184;2024-01-30T10:43:30;7.40;99.90
9219;DHT22;4644;48.858;9.184;2024-01-30T10:46:05;7.40;99.90
9219;DHT22;4644;48.858;9.184;2024-01-30T10:48:36;7.50;99.90
9219;DHT22;4644;48.858;9.184;2024-01-30T10:51:05;7.50;99.90
9219;DHT22;4644;48.858;9.184;2024-01-30T10:53:40;7.70;99.90
9219;DHT22;4644;48.858;9.184;2024-01-30T10:56:10;7.70;99.90
9219;DHT22;4644;48.858;9.184;2024-01-30T10:58:38;7.80;99.90
9219;DHT22;4644;48.858;9.184;2024-01-30T11:01:06;7.90;99.90
9219;DHT22;4644;48.858;9.184;2024-01-30T11:03:34;8.00;99.90
9219;DHT22;4644;48.858;9.184;2024-01-30T11:06:02;8.00;99.90
9219;DHT22;4644;48.858;9.184;2024-01-30T11:08:32;8.00;99.90
9219;DHT22;4644;48.858;9.184;2024-01-30T11:10:59;8.10;99.90
9219;DHT22;4644;48.858;9.184;2024-01-30T11:13:29;8.20;99.90
9219;DHT22;4644;48.858;9.184;2024-01-30T11:16:00;8.40;99.90
9219;DHT22;4644;48.858;9.184;2024-01-30T11:18:29;8.40;99.90
9219;DHT22;4644;48.858;9.184;2024-01-30T11:20:56;8.50;99.90
9219;DHT22;4644;48.858;9.184;2024-01-30T11:23:25;8.50;99.90
9219;DHT22;4644;48.858;9.184;2024-01-30T11:25:52;8.50;99.90
9219;DHT22;4644;48.858;9.184;2024-01-30T11:28:21;8.60;99.90
9219;DHT22;4644;48.858;9.184;2024-01-30T11:30:50;8.70;99.90
9219;DHT22;4644;48.858;9.184;2024-01-30T11:33:28;8.70;99.90
9219;DHT22;4644;48.858;9.184;2024-01-30T11:35:57;8.90;99.90
9219;DHT22;4644;48.858;9.184;2024-01-30T11:38:25;9.00;99.90
9219;DHT22;4644;48.858;9.184;2024-01-30T11:40:53;9.10;99.90
9219;DHT22;4644;48.858;9.184;2024-01-30T11:43:21;9.10;99.90
9219;DHT22;4644;48.858;9.184;2024-01-30T11:45:47;9.10;99.90
9219;DHT22;4644;48.858;9.184;2024-01-30T11:48:16;9.10;99.90
9219;DHT22;4644;48.858;9.184;2024-01-30T11:50:43;9.20;99.90
9219;DHT22;4644;48.858;9.184;2024-01-30T11:53:11;9.20;99.90
9219;DHT22;4644;48.858;9.184;2024-01-30T11:55:37;9.20;99.90
9219;DHT22;4644;48.858;9.184;2024-01-30T11:58:04;9.40;99.90
9219;DHT22;4644;48.858;9.184;2024-01-30T12:00:31;9.40;99.90
9219;DHT22;4644;48.858;9.184;2024-01-30T12:02:59;9.40;99.90
9219;DHT22;4644;48.858;9.184;2024-01-30T12:05:28;9.50;99.90
9219;DHT22;4644;48.858;9.184;2024-01-30T12:07:55;9.60;99.90
9219;DHT22;4644;48.858;9.184;2024-01-30T12:10:24;9.60;99.90
9219;DHT22;4644;48.858;9.184;2024-01-30T12:12:51;9.60;99.90
9219;DHT22;4644;48.858;9.184;2024-01-30T12:15:19;9.50;99.90
9219;DHT22;4644;48.858;9.184;2024-01-30T12:17:47;9.50;99.90
9219;DHT22;4644;48.858;9.184;2024-01-30T12:20:15;9.60;99.90
9219;DHT22;4644;48.858;9.184;2024-01-30T12:22:46;9.60;99.90
9219;DHT22;4644;48.858;9.184;2024-01-30T12:25:14;9.60;99.90
9219;DHT22;4644;48.858;9.184;2024-01-30T12:27:42;9.70;99.90
9219;DHT22;4644;48.858;9.184;2024-01-30T12:30:11;9.70;99.90
9219;DHT22;4644;48.858;9.184;2024-01-30T12:32:40;9.80;99.90
9219;DHT22;4644;48.858;9.184;2024-01-30T12:35:09;9.90;99.90
9219;DHT22;4644;48.858;9.184;2024-01-30T12:37:36;9.90;99.90
9219;DHT22;4644;48.858;9.184;2024-01-30T12:40:06;10.00;99.90
9219;DHT22;4644;48.858;9.184;2024-01-30T12:42:33;10.00;99.90
9219;DHT22;4644;48.858;9.184;2024-01-30T12:45:01;10.00;99.90
9219;DHT22;4644;48.858;9.184;2024-01-30T12:47:28;10.00;99.90
9219;DHT22;4644;48.858;9.184;2024-01-30T12:49:55;10.10;99.90
9219;DHT22;4644;48.858;9.184;2024-01-30T12:52:22;10.20;99.90
9219;DHT22;4644;48.858;9.184;2024-01-30T12:54:50;10.30;99.90
9219;DHT22;4644;48.858;9.184;2024-01-30T12:57:18;10.30;99.90
9219;DHT22;4644;48.858;9.184;2024-01-30T12:59:46;10.30;99.90
9219;DHT22;4644;48.858;9.184;2024-01-30T13:02:13;10.40;99.90
9219;DHT22;4644;48.858;9.184;2024-01-30T13:04:41;10.50;99.90
9219;DHT22;4644;48.858;9.184;2024-01-30T13:07:08;10.50;99.90
9219;DHT22;4644;48.858;9.184;2024-01-30T13:09:35;10.60;99.90
9219;DHT22;4644;48.858;9.184;2024-01-30T13:12:02;10.60;99.90
9219;DHT22;4644;48.858;9.184;2024-01-30T13:14:30;10.60;99.90
9219;DHT22;4644;48.858;9.184;2024-01-30T13:16:57;10.50;99.90
9219;DHT22;4644;48.858;9.184;2024-01-30T13:19:24;10.60;99.90
9219;DHT22;4644;48.858;9.184;2024-01-30T13:21:51;10.70;99.90
9219;DHT22;4644;48.858;9.184;2024-01-30T13:24:17;10.80;99.90
9219;DHT22;4644;48.858;9.184;2024-01-30T13:26:46;10.90;99.90
9219;DHT22;4644;48.858;9.184;2024-01-30T13:29:13;11.00;99.90
9219;DHT22;4644;48.858;9.184;2024-01-30T13:31:42;11.00;99.90
9219;DHT22;4644;48.858;9.184;2024-01-30T13:34:09;11.00;99.90
9219;DHT22;4644;48.858;9.184;2024-01-30T13:36:36;10.90;99.90
9219;DHT22;4644;48.858;9.184;2024-01-30T13:39:03;11.10;99.90
9219;DHT22;4644;48.858;9.184;2024-01-30T13:41:32;11.10;99.90
9219;DHT22;4644;48.858;9.184;2024-01-30T13:43:59;11.10;99.90
9219;DHT22;4644;48.858;9.184;2024-01-30T13:46:28;11.00;99.90
9219;DHT22;4644;48.858;9.184;2024-01-30T13:48:57;11.00;99.90
9219;DHT22;4644;48.858;9.184;2024-01-30T13:51:23;11.00;99.90
9219;DHT22;4644;48.858;9.184;2024-01-30T13:53:50;11.00;99.90
9219;DHT22;4644;48.858;9.184;2024-01-30T13:56:17;11.00;99.90
9219;DHT22;4644;48.858;9.184;2024-01-30T13:58:44;10.90;99.90
9219;DHT22;4644;48.858;9.184;2024-01-30T14:01:11;11.00;99.90
9219;DHT22;4644;48.858;9.184;2024-01-30T14:03:38;11.10;99.90
9219;DHT22;4644;48.858;9.184;2024-01-30T14:06:06;11.10;99.90
9219;DHT22;4644;48.858;9.184;2024-01-30T14:08:33;11.00;99.90
9219;DHT22;4644;48.858;9.184;2024-01-30T14:11:00;10.90;99.90
9219;DHT22;4644;48.858;9.184;2024-01-30T14:13:27;10.70;99.90
9219;DHT22;4644;48.858;9.184;2024-01-30T14:15:54;10.70;99.90
9219;DHT22;4644;48.858;9.184;2024-01-30T14:18:20;10.60;99.90
9219;DHT22;4644;48.858;9.184;2024-01-30T14:20:48;10.70;99.90
9219;DHT22;4644;48.858;9.184;2024-01-30T14:23:18;10.60;99.90
9219;DHT22;4644;48.858;9.184;2024-01-30T14:25:44;10.60;99.90
9219;DHT22;4644;48.858;9.184;2024-01-30T14:28:11;10.60;99.90
9219;DHT22;4644;48.858;9.184;2024-01-30T14:30:38;10.50;99.90
9219;DHT22;4644;48.858;9.184;2024-01-30T14:33:05;10.50;99.90
9219;DHT22;4644;48.858;9.184;2024-01-30T14:35:32;10.40;99.90
9219;DHT22;4644;48.858;9.184;2024-01-30T14:37:59;10.40;99.90
9219;DHT22;4644;48.858;9.184;2024-01-30T14:40:28;10.30;99.90
9219;DHT22;4644;48.858;9.184;2024-01-30T14:42:55;10.30;99.90
9219;DHT22;4644;48.858;9.184;2024-01-30T14:45:24;10.30;99.90
9219;DHT22;4644;48.858;9.184;2024-01-30T14:47:51;10.30;99.90
9219;DHT22;4644;48.858;9.184;2024-01-30T14:50:18;10.20;99.90
9219;DHT22;4644;48.858;9.184;2024-01-30T14:53:08;10.20;99.90
9219;DHT22;4644;48.858;9.184;2024-01-30T14:55:46;10.20;99.90
9219;DHT22;4644;48.858;9.184;2024-01-30T14:58:13;10.10;99.90
9219;DHT22;4644;48.858;9.184;2024-01-30T15:00:40;10.10;99.90
9219;DHT22;4644;48.858;9.184;2024-01-30T15:03:07;10.00;99.90
9219;DHT22;4644;48.858;9.184;2024-01-30T15:05:34;10.00;99.90
9219;DHT22;4644;48.858;9.184;2024-01-30T15:08:00;9.90;99.90
9219;DHT22;4644;48.858;9.184;2024-01-30T15:10:27;9.80;99.90
9219;DHT22;4644;48.858;9.184;2024-01-30T15:12:56;9.80;99.90
9219;DHT22;4644;48.858;9.184;2024-01-30T15:15:23;9.80;99.90
9219;DHT22;4644;48.858;9.184;2024-01-30T15:17:50;9.70;99.90
9219;DHT22;4644;48.858;9.184;2024-01-30T15:20:16;9.60;99.90
9219;DHT22;4644;48.858;9.184;2024-01-30T15:22:43;9.60;99.90
9219;DHT22;4644;48.858;9.184;2024-01-30T15:25:10;9.50;99.90
9219;DHT22;4644;48.858;9.184;2024-01-30T15:27:38;9.50;99.90
9219;DHT22;4644;48.858;9.184;2024-01-30T15:30:07;9.40;99.90
9219;DHT22;4644;48.858;9.184;2024-01-30T15:32:34;9.30;99.90
9219;DHT22;4644;48.858;9.184;2024-01-30T15:35:01;9.20;99.90
9219;DHT22;4644;48.858;9.184;2024-01-30T15:37:29;9.10;99.90
9219;DHT22;4644;48.858;9.184;2024-01-30T15:39:56;9.00;99.90
9219;DHT22;4644;48.858;9.184;2024-01-30T15:42:23;8.90;99.90
9219;DHT22;4644;48.858;9.184;2024-01-30T15:44:49;8.90;99.90
9219;DHT22;4644;48.858;9.184;2024-01-30T15:47:18;8.80;99.90
9219;DHT22;4644;48.858;9.184;2024-01-30T15:49:44;8.80;99.90
9219;DHT22;4644;48.858;9.184;2024-01-30T15:52:11;8.70;99.90
9219;DHT22;4644;48.858;9.184;2024-01-30T15:54:40;8.60;99.90
9219;DHT22;4644;48.858;9.184;2024-01-30T15:57:07;8.60;99.90
9219;DHT22;4644;48.858;9.184;2024-01-30T15:59:34;8.50;99.90
9219;DHT22;4644;48.858;9.184;2024-01-30T16:02:00;8.50;99.90
9219;DHT22;4644;48.858;9.184;2024-01-30T16:04:28;8.40;99.90
9219;DHT22;4644;48.858;9.184;2024-01-30T16:06:56;8.30;99.90
9219;DHT22;4644;48.858;9.184;2024-01-30T16:09:23;8.20;99.90
9219;DHT22;4644;48.858;9.184;2024-01-30T16:11:50;8.20;99.90
9219;DHT22;4644;48.858;9.184;2024-01-30T16:14:17;8.10;99.90
9219;DHT22;4644;48.858;9.184;2024-01-30T16:16:44;8.00;99.90